中国・大連から!!!

LUXURY FLIGHT

03-6423-7371

羽田本店:東京都大田区羽田5-11-1
営業時間:10:00~20:00
定休日:毎週 月曜日
セントレア店:愛知県常滑市セントレア1-1
営業時間:10:00~20:00 年中無休

lv

中国・大連から!!!

STAFF BLOG

2019/10/02 中国・大連から!!!

おはようございますーーーーーーーー

 

本日の羽田METARは…

 

RJTT 020400Z 08004KT 9999 FEW020 26/20 Q1019 NOSIG RMK 1CU020 A3009

 

 

だんだんこのブログも国際色豊かになって参りましたーーー!!

 

本日は中国・大連からお越しのL様ーーーーー!!!

 

とある航空会社のパイロット訓練生だそうで、根っからの飛行機好き

747のコックピットに座ってからはニタニタが止まらないご様子。笑

 

 

img_3078

 

しかも日本が大好きとのことで、

予約のメールは漢字をガンガン使いこなした日本語だし、

会ってみたら日本語ペラペラだし、

世界で一番好きな飛行場は羽田空港だし、ということだそうで…

 

ガンガン羽田上空を回らせてもらいました!!

 

 

今は航空会社で座学訓練中とのことですので、

このフライトを良きモチベーションとして、パイロット道をガンガン突き進んでくださーーーい

 

スタッフ一同、全力で応援させていただきます

 

 

この度はご来店誠にありがとうございました。

 

 

「感謝」

TOP